Time;durP1;ratioP1;P1;durP2;ratioP2;P2;SDS_P1;SDS_P2;PMS_P1;PMS_P2;Temp;Humidity;BMP_temperature;BMP_pressure;BME280_temperature;BME280_humidity;BME280_pressure;Samples;Min_cycle;Max_cycle;Signal;HPM_P1;HPM_P2
2023/04/30 00:02:11;;;;;;;12.90;8.73;;;;;;;;;;5030299;28;20044;-62
2023/04/30 00:04:36;;;;;;;14.98;8.73;;;;;;;;;;5020373;28;20036;-62
2023/04/30 00:07:02;;;;;;;14.48;8.32;;;;;;;;;;5033445;28;20079;-61
2023/04/30 00:09:27;;;;;;;14.70;8.45;;;;;;;;;;5032215;28;20466;-61
2023/04/30 00:11:53;;;;;;;13.75;9.10;;;;;;;;;;5014710;28;20030;-62
2023/04/30 00:14:18;;;;;;;15.77;9.45;;;;;;;;;;5014906;28;20692;-62
2023/04/30 00:16:44;;;;;;;13.93;9.45;;;;;;;;;;5029573;28;20030;-62
2023/04/30 00:19:09;;;;;;;16.02;9.20;;;;;;;;;;5035577;28;20467;-62
2023/04/30 00:21:35;;;;;;;18.15;9.38;;;;;;;;;;5034851;28;20033;-61
2023/04/30 00:24:00;;;;;;;14.85;9.32;;;;;;;;;;5030776;28;20164;-61
2023/04/30 00:26:26;;;;;;;13.48;8.65;;;;;;;;;;5032051;28;20106;-61
2023/04/30 00:28:51;;;;;;;17.50;9.60;;;;;;;;;;5033839;28;20042;-61
2023/04/30 00:31:16;;;;;;;14.90;9.55;;;;;;;;;;5030726;28;20037;-61
2023/04/30 00:33:42;;;;;;;13.85;9.15;;;;;;;;;;5028045;28;20037;-61
2023/04/30 00:36:07;;;;;;;14.40;9.02;;;;;;;;;;5032760;28;20029;-61
2023/04/30 00:38:33;;;;;;;15.80;9.18;;;;;;;;;;5027340;28;20139;-61
2023/04/30 00:40:58;;;;;;;14.88;8.68;;;;;;;;;;5028969;28;20031;-61
2023/04/30 00:43:24;;;;;;;17.90;8.98;;;;;;;;;;5034361;28;20026;-63
2023/04/30 00:45:50;;;;;;;12.50;8.20;;;;;;;;;;5020529;28;20037;-62
2023/04/30 00:48:15;;;;;;;13.68;9.45;;;;;;;;;;5013812;28;20033;-60
2023/04/30 00:50:43;;;;;;;16.83;9.70;;;;;;;;;;5013258;28;20137;-61
2023/04/30 00:53:12;;;;;;;18.85;9.55;;;;;;;;;;5013170;28;20037;-62
2023/04/30 00:55:40;;;;;;;14.38;8.90;;;;;;;;;;5014640;28;20049;-60
2023/04/30 00:58:06;;;;;;;15.30;9.27;;;;;;;;;;5033251;28;20037;-62
2023/04/30 01:00:32;;;;;;;17.00;9.10;;;;;;;;;;5024090;28;20029;-61
2023/04/30 01:02:58;;;;;;;14.57;9.20;;;;;;;;;;5023924;28;20037;-62
2023/04/30 01:05:23;;;;;;;14.27;9.10;;;;;;;;;;5029473;28;20136;-62
2023/04/30 01:07:49;;;;;;;15.15;9.20;;;;;;;;;;5023159;28;20498;-61
2023/04/30 01:10:15;;;;;;;19.45;10.07;;;;;;;;;;5022345;28;20029;-61
2023/04/30 01:12:55;;;;;;;17.15;10.13;;;;;;;;;;5016532;28;20049;-61
2023/04/30 01:15:28;;;;;;;15.50;9.85;;;;;;;;;;5020395;28;20049;-61
2023/04/30 01:18:34;;;;;;;17.23;9.40;;;;;;;;;;5029968;28;20068;-61
2023/04/30 01:21:05;;;;;;;18.33;9.98;;;;;;;;;;5010170;28;20040;-60
2023/04/30 01:23:49;;;;;;;18.37;10.57;;;;;;;;;;5017218;28;20088;-61
2023/04/30 01:26:28;;;;;;;15.98;10.27;;;;;;;;;;5013656;28;20267;-62
2023/04/30 01:28:56;;;;;;;17.27;10.45;;;;;;;;;;5028099;28;20041;-61
2023/04/30 01:31:23;;;;;;;19.85;10.35;;;;;;;;;;5014633;28;20037;-61
2023/04/30 01:33:48;;;;;;;20.55;10.93;;;;;;;;;;5026153;28;20032;-61
2023/04/30 01:36:44;;;;;;;20.48;10.70;;;;;;;;;;5012274;28;20114;-62
2023/04/30 01:39:34;;;;;;;20.45;10.30;;;;;;;;;;4979772;28;20049;-62
2023/04/30 01:42:20;;;;;;;17.90;10.53;;;;;;;;;;4986901;28;20042;-62
2023/04/30 01:44:57;;;;;;;18.83;10.60;;;;;;;;;;4985460;28;20035;-62
2023/04/30 01:47:25;;;;;;;17.20;10.98;;;;;;;;;;4986225;28;20101;-62
2023/04/30 01:50:19;;;;;;;20.08;11.38;;;;;;;;;;4976400;28;20549;-62
2023/04/30 01:52:49;;;;;;;18.75;11.55;;;;;;;;;;4993008;28;20034;-60
2023/04/30 01:55:23;;;;;;;20.92;11.55;;;;;;;;;;4972718;28;20034;-63
2023/04/30 01:57:59;;;;;;;19.25;12.00;;;;;;;;;;4977058;28;20041;-62
2023/04/30 02:00:26;;;;;;;18.23;11.45;;;;;;;;;;4978276;28;20366;-63
2023/04/30 02:02:51;;;;;;;25.00;11.93;;;;;;;;;;4981801;28;20034;-62
2023/04/30 02:05:17;;;;;;;20.95;11.57;;;;;;;;;;4981754;28;20138;-62
2023/04/30 02:07:45;;;;;;;20.58;11.35;;;;;;;;;;4975050;28;20073;-62
2023/04/30 02:10:11;;;;;;;21.30;11.68;;;;;;;;;;4976715;28;20393;-62
2023/04/30 02:12:37;;;;;;;20.23;11.73;;;;;;;;;;4997364;28;20439;-61
2023/04/30 02:15:04;;;;;;;20.35;11.75;;;;;;;;;;4991468;28;20068;-61
2023/04/30 02:17:30;;;;;;;19.33;11.63;;;;;;;;;;4991069;28;20457;-62
2023/04/30 02:19:56;;;;;;;20.15;11.38;;;;;;;;;;4975022;28;20047;-61
2023/04/30 02:22:21;;;;;;;21.52;11.65;;;;;;;;;;4975100;28;20718;-62
2023/04/30 02:24:47;;;;;;;17.77;11.10;;;;;;;;;;4985945;28;20065;-61
2023/04/30 02:27:12;;;;;;;21.35;11.50;;;;;;;;;;4971949;28;20039;-61
2023/04/30 02:29:38;;;;;;;20.52;11.88;;;;;;;;;;4978781;28;20034;-61
2023/04/30 02:32:03;;;;;;;19.60;10.90;;;;;;;;;;4986049;28;20050;-61
2023/04/30 02:34:29;;;;;;;18.73;11.18;;;;;;;;;;4984196;28;20053;-61
2023/04/30 02:36:54;;;;;;;18.25;11.95;;;;;;;;;;4994320;28;20069;-61
2023/04/30 02:39:20;;;;;;;18.90;11.18;;;;;;;;;;5017158;28;20087;-62
2023/04/30 02:41:45;;;;;;;21.77;10.93;;;;;;;;;;5026138;28;20030;-62
2023/04/30 02:44:11;;;;;;;18.30;11.23;;;;;;;;;;5029958;28;20462;-62
2023/04/30 02:46:36;;;;;;;18.65;11.45;;;;;;;;;;5025841;28;20029;-63
2023/04/30 02:49:02;;;;;;;21.63;11.77;;;;;;;;;;5021033;28;20109;-62
2023/04/30 02:51:27;;;;;;;19.65;11.43;;;;;;;;;;5025475;28;20033;-62
2023/04/30 02:53:52;;;;;;;21.98;11.95;;;;;;;;;;5017118;28;20117;-61
2023/04/30 02:56:18;;;;;;;21.15;12.00;;;;;;;;;;5025863;28;20033;-61
2023/04/30 02:58:43;;;;;;;21.02;12.13;;;;;;;;;;5017857;28;20052;-62
2023/04/30 03:01:09;;;;;;;20.90;12.50;;;;;;;;;;5011896;28;20034;-61
2023/04/30 03:03:34;;;;;;;23.00;12.73;;;;;;;;;;5023034;28;20030;-61
2023/04/30 03:05:59;;;;;;;24.00;12.35;;;;;;;;;;5027307;28;20064;-61
2023/04/30 03:08:25;;;;;;;24.45;13.00;;;;;;;;;;5022260;28;20088;-61
2023/04/30 03:10:51;;;;;;;24.25;12.55;;;;;;;;;;5013244;28;20038;-61
2023/04/30 03:13:16;;;;;;;22.20;13.15;;;;;;;;;;5023257;28;20029;-61
2023/04/30 03:15:42;;;;;;;22.88;13.25;;;;;;;;;;5015511;28;20113;-61
2023/04/30 03:18:08;;;;;;;23.10;12.93;;;;;;;;;;5020655;28;20061;-61
2023/04/30 03:20:34;;;;;;;27.13;13.70;;;;;;;;;;5025281;28;20057;-61
2023/04/30 03:22:59;;;;;;;26.13;14.65;;;;;;;;;;5011566;28;20073;-61
2023/04/30 03:25:25;;;;;;;27.50;14.40;;;;;;;;;;5011186;28;20030;-61
2023/04/30 03:27:50;;;;;;;26.27;15.25;;;;;;;;;;5028593;28;20450;-61
2023/04/30 03:30:15;;;;;;;31.73;14.95;;;;;;;;;;5018384;28;20033;-61
2023/04/30 03:32:41;;;;;;;31.33;15.52;;;;;;;;;;5010477;28;20025;-61
2023/04/30 03:35:07;;;;;;;25.70;15.02;;;;;;;;;;5013886;28;20040;-61
2023/04/30 03:37:33;;;;;;;25.30;14.20;;;;;;;;;;5029887;28;20088;-62
2023/04/30 03:39:58;;;;;;;26.92;15.43;;;;;;;;;;5020287;28;20061;-61
2023/04/30 03:42:24;;;;;;;25.50;14.10;;;;;;;;;;5025104;28;20166;-62
2023/04/30 03:44:49;;;;;;;27.35;15.02;;;;;;;;;;5025628;28;20063;-62
2023/04/30 03:47:15;;;;;;;25.13;14.30;;;;;;;;;;5028640;28;20049;-61
2023/04/30 03:49:41;;;;;;;26.98;15.23;;;;;;;;;;5023421;28;20026;-62
2023/04/30 03:52:06;;;;;;;23.95;14.48;;;;;;;;;;5015135;28;20049;-62
2023/04/30 03:54:34;;;;;;;26.98;14.98;;;;;;;;;;5011113;28;20034;-61
2023/04/30 03:57:03;;;;;;;25.52;14.60;;;;;;;;;;5013462;28;20041;-61
2023/04/30 03:59:30;;;;;;;27.63;15.40;;;;;;;;;;5012508;28;20364;-61
2023/04/30 04:01:55;;;;;;;25.30;15.25;;;;;;;;;;5021587;28;20124;-61
2023/04/30 04:04:21;;;;;;;25.92;15.60;;;;;;;;;;5015184;28;20153;-63
2023/04/30 04:06:46;;;;;;;28.08;15.88;;;;;;;;;;5011606;28;20073;-62
2023/04/30 04:09:12;;;;;;;24.00;14.82;;;;;;;;;;5012157;28;20045;-62
2023/04/30 04:11:37;;;;;;;25.27;14.88;;;;;;;;;;5011959;28;20372;-61
2023/04/30 04:14:02;;;;;;;31.20;15.43;;;;;;;;;;5026143;28;20025;-61
2023/04/30 04:16:28;;;;;;;25.23;13.90;;;;;;;;;;5028362;28;20480;-61
2023/04/30 04:18:53;;;;;;;24.83;13.73;;;;;;;;;;5027880;28;20034;-61
2023/04/30 04:21:19;;;;;;;27.58;14.90;;;;;;;;;;5018641;28;20038;-61
2023/04/30 04:23:44;;;;;;;27.13;14.48;;;;;;;;;;5029734;28;20044;-61
2023/04/30 04:26:10;;;;;;;26.30;14.77;;;;;;;;;;5028191;28;20052;-61
2023/04/30 04:28:35;;;;;;;28.02;15.40;;;;;;;;;;5031152;28;20476;-61
2023/04/30 04:31:02;;;;;;;27.70;13.95;;;;;;;;;;5015661;28;20428;-61
2023/04/30 04:33:27;;;;;;;27.48;14.50;;;;;;;;;;5020794;28;20038;-61
2023/04/30 04:35:53;;;;;;;25.55;14.50;;;;;;;;;;5022242;28;20056;-61
2023/04/30 04:38:18;;;;;;;29.10;15.25;;;;;;;;;;5014899;28;20104;-61
2023/04/30 04:40:53;;;;;;;25.63;14.68;;;;;;;;;;5019919;28;20392;-60
2023/04/30 04:43:19;;;;;;;29.80;15.80;;;;;;;;;;5029872;28;20463;-61
2023/04/30 04:45:46;;;;;;;29.00;14.57;;;;;;;;;;5044406;28;20033;-61
2023/04/30 04:48:11;;;;;;;26.65;15.25;;;;;;;;;;5033743;28;20515;-62
2023/04/30 04:50:36;;;;;;;25.48;15.10;;;;;;;;;;5032974;28;20053;-61
2023/04/30 04:53:02;;;;;;;28.38;14.80;;;;;;;;;;5020163;28;20472;-60
2023/04/30 04:55:27;;;;;;;26.95;15.15;;;;;;;;;;5023521;28;20242;-61
2023/04/30 04:57:53;;;;;;;30.98;16.60;;;;;;;;;;5014272;28;20030;-61
2023/04/30 05:00:20;;;;;;;24.10;14.60;;;;;;;;;;5029245;28;20037;-61
2023/04/30 05:02:46;;;;;;;28.13;15.85;;;;;;;;;;5034138;28;20088;-61
2023/04/30 05:05:11;;;;;;;28.58;15.05;;;;;;;;;;5032632;28;20118;-61
2023/04/30 05:07:37;;;;;;;26.52;15.07;;;;;;;;;;5032780;28;20175;-61
2023/04/30 05:10:02;;;;;;;24.92;14.57;;;;;;;;;;5033535;28;20160;-62
2023/04/30 05:12:28;;;;;;;27.45;14.07;;;;;;;;;;5031750;28;20852;-61
2023/04/30 05:14:53;;;;;;;24.48;14.70;;;;;;;;;;5034208;28;20033;-61
2023/04/30 05:17:18;;;;;;;24.98;14.30;;;;;;;;;;5029782;28;20490;-61
2023/04/30 05:19:46;;;;;;;25.10;14.57;;;;;;;;;;5034036;28;20144;-61
2023/04/30 05:22:11;;;;;;;25.05;14.43;;;;;;;;;;5031613;28;20036;-61
2023/04/30 05:24:37;;;;;;;29.90;15.25;;;;;;;;;;5033699;28;20116;-61
2023/04/30 05:27:03;;;;;;;26.73;14.15;;;;;;;;;;5032614;28;20041;-61
2023/04/30 05:29:29;;;;;;;24.75;14.60;;;;;;;;;;5032611;28;20037;-61
2023/04/30 05:31:54;;;;;;;22.88;14.65;;;;;;;;;;5031752;28;20117;-61
2023/04/30 05:34:20;;;;;;;21.77;14.13;;;;;;;;;;5031704;28;20026;-61
2023/04/30 05:36:45;;;;;;;26.08;14.88;;;;;;;;;;5032899;28;20060;-61
2023/04/30 05:39:11;;;;;;;25.35;14.57;;;;;;;;;;5033523;28;20529;-60
2023/04/30 05:41:36;;;;;;;22.90;13.68;;;;;;;;;;5030093;28;20033;-61
2023/04/30 05:44:03;;;;;;;22.27;13.77;;;;;;;;;;5033593;28;20033;-61
2023/04/30 05:46:29;;;;;;;26.08;14.32;;;;;;;;;;5017851;28;20060;-61
2023/04/30 05:48:54;;;;;;;22.10;14.13;;;;;;;;;;5013972;28;20073;-61
2023/04/30 05:51:20;;;;;;;26.90;13.88;;;;;;;;;;5026662;28;20125;-62
2023/04/30 05:53:45;;;;;;;26.80;13.88;;;;;;;;;;5027711;28;20434;-61
2023/04/30 05:56:11;;;;;;;23.65;13.60;;;;;;;;;;5021074;28;20055;-62
2023/04/30 05:58:37;;;;;;;23.80;14.27;;;;;;;;;;5027819;28;20052;-61
2023/04/30 06:01:04;;;;;;;22.20;13.25;;;;;;;;;;5043833;28;20036;-62
2023/04/30 06:03:29;;;;;;;21.95;12.55;;;;;;;;;;5032255;28;20034;-61
2023/04/30 06:05:54;;;;;;;20.70;12.15;;;;;;;;;;5030354;28;20040;-61
2023/04/30 06:08:20;;;;;;;21.52;11.98;;;;;;;;;;5031464;28;20033;-61
2023/04/30 06:10:45;;;;;;;19.42;11.80;;;;;;;;;;5032152;28;20606;-61
2023/04/30 06:13:11;;;;;;;20.98;11.52;;;;;;;;;;5031802;28;20048;-61
2023/04/30 06:15:37;;;;;;;20.92;11.68;;;;;;;;;;5032366;28;20406;-61
2023/04/30 06:18:02;;;;;;;22.50;11.98;;;;;;;;;;5031840;28;20037;-61
2023/04/30 06:20:28;;;;;;;18.38;11.27;;;;;;;;;;5029888;28;20029;-62
2023/04/30 06:22:53;;;;;;;20.88;11.50;;;;;;;;;;5030770;28;20037;-61
2023/04/30 06:25:19;;;;;;;22.30;11.75;;;;;;;;;;5027342;28;20112;-61
2023/04/30 06:27:45;;;;;;;20.55;11.02;;;;;;;;;;5014471;28;20037;-62
2023/04/30 06:30:11;;;;;;;20.30;11.00;;;;;;;;;;5032445;28;20032;-61
2023/04/30 06:32:36;;;;;;;18.73;10.05;;;;;;;;;;5030443;28;20030;-61
2023/04/30 06:35:02;;;;;;;17.88;10.05;;;;;;;;;;5032132;28;20030;-60
2023/04/30 06:37:27;;;;;;;20.80;10.25;;;;;;;;;;5025137;28;20045;-62
2023/04/30 06:39:52;;;;;;;13.57;8.77;;;;;;;;;;5028288;28;20468;-61
2023/04/30 06:42:18;;;;;;;15.00;8.88;;;;;;;;;;5029172;28;20569;-61
2023/04/30 06:44:44;;;;;;;18.17;9.60;;;;;;;;;;5032045;28;20025;-61
2023/04/30 06:47:09;;;;;;;16.00;9.00;;;;;;;;;;5031330;28;20037;-61
2023/04/30 06:49:35;;;;;;;18.17;9.15;;;;;;;;;;5031317;28;20095;-61
2023/04/30 06:52:00;;;;;;;14.32;8.30;;;;;;;;;;5030711;28;20171;-61
2023/04/30 06:54:26;;;;;;;16.98;8.98;;;;;;;;;;5031197;28;20094;-60
2023/04/30 06:56:52;;;;;;;16.17;8.63;;;;;;;;;;5030709;28;20033;-60
2023/04/30 06:59:18;;;;;;;15.48;8.77;;;;;;;;;;5030862;28;20032;-59
2023/04/30 07:01:43;;;;;;;14.30;8.65;;;;;;;;;;5029729;28;20033;-59
2023/04/30 07:04:08;;;;;;;13.90;7.93;;;;;;;;;;5022660;28;20032;-62
2023/04/30 07:06:34;;;;;;;15.82;8.18;;;;;;;;;;5016058;28;20028;-63
2023/04/30 07:08:59;;;;;;;12.57;7.88;;;;;;;;;;5028565;28;20033;-64
2023/04/30 07:11:25;;;;;;;12.05;7.97;;;;;;;;;;5012979;28;20479;-63
2023/04/30 07:13:50;;;;;;;12.05;7.90;;;;;;;;;;5013779;28;20041;-67
2023/04/30 07:16:16;;;;;;;11.23;7.28;;;;;;;;;;5027890;28;20087;-66
2023/04/30 07:18:41;;;;;;;13.95;7.70;;;;;;;;;;5020002;28;20041;-62
2023/04/30 07:21:07;;;;;;;16.17;7.68;;;;;;;;;;5027097;28;20038;-62
2023/04/30 07:23:33;;;;;;;14.32;7.55;;;;;;;;;;5020135;28;20465;-62
2023/04/30 07:25:59;;;;;;;11.10;7.57;;;;;;;;;;5018085;28;20455;-61
2023/04/30 07:28:24;;;;;;;10.77;7.38;;;;;;;;;;5010126;28;20034;-64
2023/04/30 07:30:50;;;;;;;11.00;7.28;;;;;;;;;;5014156;28;20113;-63
2023/04/30 07:33:15;;;;;;;14.35;7.60;;;;;;;;;;5017644;28;20037;-62
2023/04/30 07:35:41;;;;;;;12.05;7.90;;;;;;;;;;5020583;28;21207;-62
2023/04/30 07:38:07;;;;;;;14.82;7.90;;;;;;;;;;5021156;28;20116;-62
2023/04/30 07:40:32;;;;;;;12.23;8.10;;;;;;;;;;5012502;28;20044;-62
2023/04/30 07:42:58;;;;;;;11.52;7.32;;;;;;;;;;5023826;28;20029;-62
2023/04/30 07:45:23;;;;;;;14.02;7.63;;;;;;;;;;5025120;28;20506;-62
2023/04/30 07:47:49;;;;;;;12.20;7.50;;;;;;;;;;5012307;28;20105;-62
2023/04/30 07:50:14;;;;;;;13.20;7.80;;;;;;;;;;5012534;28;20030;-63
2023/04/30 07:52:40;;;;;;;11.35;7.75;;;;;;;;;;5025234;28;20032;-62
2023/04/30 07:55:06;;;;;;;11.48;7.25;;;;;;;;;;5022814;28;20038;-69
2023/04/30 07:57:31;;;;;;;13.35;7.88;;;;;;;;;;5010268;28;20033;-61
2023/04/30 07:59:57;;;;;;;11.75;7.20;;;;;;;;;;5011189;28;20033;-62
2023/04/30 08:02:22;;;;;;;11.38;7.85;;;;;;;;;;5009317;28;20042;-61
2023/04/30 08:04:48;;;;;;;11.82;7.32;;;;;;;;;;5008421;28;20087;-62
2023/04/30 08:07:16;;;;;;;14.63;8.07;;;;;;;;;;5019726;28;20399;-62
2023/04/30 08:09:42;;;;;;;13.45;7.72;;;;;;;;;;5023777;28;20088;-62
2023/04/30 08:12:08;;;;;;;12.98;7.55;;;;;;;;;;5025458;28;20030;-62
2023/04/30 08:14:34;;;;;;;13.00;7.88;;;;;;;;;;5011704;28;20079;-62
2023/04/30 08:17:01;;;;;;;11.38;8.00;;;;;;;;;;5027841;28;20547;-62
2023/04/30 08:19:26;;;;;;;12.85;8.05;;;;;;;;;;5023106;28;20069;-62
2023/04/30 08:21:52;;;;;;;11.48;7.43;;;;;;;;;;5028614;28;20057;-62
2023/04/30 08:24:17;;;;;;;12.38;7.53;;;;;;;;;;5029396;28;20034;-62
2023/04/30 08:26:43;;;;;;;14.05;8.02;;;;;;;;;;5033019;28;20597;-62
2023/04/30 08:29:08;;;;;;;14.82;7.90;;;;;;;;;;5031892;28;20479;-62
2023/04/30 08:31:34;;;;;;;11.98;7.45;;;;;;;;;;5034011;28;20026;-62
2023/04/30 08:34:00;;;;;;;11.60;7.00;;;;;;;;;;5034139;28;20048;-61
2023/04/30 08:36:26;;;;;;;11.00;6.45;;;;;;;;;;5032003;28;20478;-61
2023/04/30 08:38:52;;;;;;;9.20;5.70;;;;;;;;;;5032819;28;20058;-62
2023/04/30 08:41:21;;;;;;;10.10;5.97;;;;;;;;;;5032540;28;20070;-62
2023/04/30 08:43:50;;;;;;;9.15;5.72;;;;;;;;;;5031529;28;20034;-62
2023/04/30 08:46:16;;;;;;;8.20;5.47;;;;;;;;;;5046697;28;20026;-62
2023/04/30 08:48:43;;;;;;;9.13;5.75;;;;;;;;;;5025767;28;20610;-61
2023/04/30 08:51:08;;;;;;;9.52;5.22;;;;;;;;;;5030989;28;20503;-62
2023/04/30 08:53:35;;;;;;;10.70;5.72;;;;;;;;;;5032961;28;20061;-62
2023/04/30 08:56:02;;;;;;;8.43;5.60;;;;;;;;;;5034375;28;20051;-61
2023/04/30 08:58:27;;;;;;;10.10;5.68;;;;;;;;;;5021536;28;20037;-61
2023/04/30 09:00:52;;;;;;;8.95;5.85;;;;;;;;;;5014303;28;20384;-63
2023/04/30 09:03:20;;;;;;;9.60;5.85;;;;;;;;;;5014393;28;20061;-63
2023/04/30 09:05:46;;;;;;;9.15;6.53;;;;;;;;;;5013602;28;20026;-62
2023/04/30 09:08:17;;;;;;;10.15;6.00;;;;;;;;;;5014468;28;20037;-64
2023/04/30 09:10:43;;;;;;;10.27;5.90;;;;;;;;;;5013622;28;20041;-62
2023/04/30 09:13:09;;;;;;;12.00;6.43;;;;;;;;;;5014096;28;20026;-63
2023/04/30 09:15:36;;;;;;;12.70;6.07;;;;;;;;;;5025036;28;20036;-63
2023/04/30 09:18:15;;;;;;;10.05;5.97;;;;;;;;;;5033576;28;20348;-63
2023/04/30 09:21:00;;;;;;;9.52;5.60;;;;;;;;;;5033286;28;20129;-63
2023/04/30 09:23:26;;;;;;;9.00;5.40;;;;;;;;;;5033712;28;20191;-63
2023/04/30 09:25:52;;;;;;;10.95;5.40;;;;;;;;;;5033544;28;20037;-63
2023/04/30 09:28:22;;;;;;;8.75;5.53;;;;;;;;;;5033399;28;20036;-62
2023/04/30 09:30:48;;;;;;;9.20;5.60;;;;;;;;;;5032580;28;20634;-63
2023/04/30 09:33:13;;;;;;;9.13;5.50;;;;;;;;;;5028752;28;20037;-62
2023/04/30 09:35:40;;;;;;;10.25;5.75;;;;;;;;;;5013085;28;20104;-61
2023/04/30 09:38:06;;;;;;;7.60;5.25;;;;;;;;;;5015898;28;20108;-62
2023/04/30 09:40:39;;;;;;;9.25;5.10;;;;;;;;;;5024008;28;20022;-62
2023/04/30 09:43:06;;;;;;;6.85;4.75;;;;;;;;;;5013848;28;20040;-63
2023/04/30 09:45:50;;;;;;;9.98;5.47;;;;;;;;;;5021113;28;20026;-63
2023/04/30 09:48:27;;;;;;;7.63;5.18;;;;;;;;;;5030159;28;20091;-63
2023/04/30 09:50:53;;;;;;;9.27;5.70;;;;;;;;;;5017585;28;20042;-63
2023/04/30 09:53:19;;;;;;;10.23;5.40;;;;;;;;;;5012996;28;20084;-63
2023/04/30 09:55:46;;;;;;;8.57;5.57;;;;;;;;;;5013621;28;20073;-63
2023/04/30 09:58:13;;;;;;;8.48;5.78;;;;;;;;;;5031398;28;20443;-62
2023/04/30 10:00:40;;;;;;;8.05;5.45;;;;;;;;;;5021609;28;20486;-63
2023/04/30 10:03:10;;;;;;;7.60;5.10;;;;;;;;;;5013560;28;20473;-63
2023/04/30 10:05:46;;;;;;;8.80;5.53;;;;;;;;;;5012354;28;20053;-63
2023/04/30 10:08:27;;;;;;;9.05;5.22;;;;;;;;;;5024693;28;20051;-63
2023/04/30 10:11:01;;;;;;;9.85;5.22;;;;;;;;;;5021664;28;20072;-63
2023/04/30 10:13:37;;;;;;;7.32;5.30;;;;;;;;;;5013055;28;20388;-62
2023/04/30 10:16:24;;;;;;;6.57;4.82;;;;;;;;;;5011843;28;20088;-63
2023/04/30 10:18:52;;;;;;;6.80;4.40;;;;;;;;;;5016685;28;20675;-63
2023/04/30 10:21:23;;;;;;;6.35;4.40;;;;;;;;;;5027275;28;20385;-63
2023/04/30 10:23:49;;;;;;;;;;;;;;;;;;5012066;28;20053;-61
2023/04/30 10:26:15;;;;;;;7.65;4.55;;;;;;;;;;5016878;28;19961;-63
2023/04/30 10:28:41;;;;;;;6.88;4.50;;;;;;;;;;5011732;28;20072;-63
2023/04/30 10:31:09;;;;;;;7.57;4.20;;;;;;;;;;5012705;28;20042;-63
2023/04/30 10:33:48;;;;;;;7.32;4.30;;;;;;;;;;5012226;28;20084;-63
2023/04/30 10:36:23;;;;;;;7.25;4.40;;;;;;;;;;5012170;28;20088;-63
2023/04/30 10:38:49;;;;;;;7.03;4.30;;;;;;;;;;5020402;28;20187;-64
2023/04/30 10:41:18;;;;;;;5.30;3.92;;;;;;;;;;5027295;28;20427;-62
2023/04/30 10:43:46;;;;;;;9.55;4.05;;;;;;;;;;5011707;28;20476;-63
2023/04/30 10:46:21;;;;;;;6.88;4.05;;;;;;;;;;5012522;28;20029;-63
2023/04/30 10:48:46;;;;;;;7.13;3.92;;;;;;;;;;5013692;28;20452;-64
2023/04/30 10:51:13;;;;;;;4.93;3.30;;;;;;;;;;5030269;28;20041;-64
2023/04/30 10:53:41;;;;;;;5.55;3.20;;;;;;;;;;5021156;28;20025;-64
2023/04/30 10:56:07;;;;;;;5.22;3.13;;;;;;;;;;5012192;28;20037;-63
2023/04/30 10:58:38;;;;;;;8.40;3.85;;;;;;;;;;5017801;28;20025;-63
2023/04/30 11:01:14;;;;;;;5.70;3.42;;;;;;;;;;5032577;28;20029;-64
2023/04/30 11:03:42;;;;;;;6.32;3.80;;;;;;;;;;5025398;28;20542;-62
2023/04/30 11:06:14;;;;;;;5.78;3.45;;;;;;;;;;5012295;28;20041;-63
2023/04/30 11:08:44;;;;;;;4.82;3.10;;;;;;;;;;5012697;28;20087;-62
2023/04/30 11:11:10;;;;;;;4.75;2.78;;;;;;;;;;5029200;28;20029;-63
2023/04/30 11:13:48;;;;;;;6.03;3.30;;;;;;;;;;5029469;28;20040;-62
2023/04/30 11:16:16;;;;;;;5.43;3.00;;;;;;;;;;5012305;28;20026;-62
2023/04/30 11:18:46;;;;;;;4.95;2.80;;;;;;;;;;5021688;28;20029;-64
2023/04/30 11:21:12;;;;;;;3.63;2.70;;;;;;;;;;4996814;28;20033;-62
2023/04/30 11:23:42;;;;;;;4.72;2.88;;;;;;;;;;5027219;28;20502;-62
2023/04/30 11:26:08;;;;;;;4.25;3.00;;;;;;;;;;5022480;28;20042;-62
2023/04/30 11:28:35;;;;;;;4.25;2.75;;;;;;;;;;5011854;28;20045;-62
2023/04/30 11:31:00;;;;;;;4.50;2.65;;;;;;;;;;5011740;28;20058;-62
2023/04/30 11:33:28;;;;;;;5.50;2.80;;;;;;;;;;5040891;28;20060;-62
2023/04/30 11:35:55;;;;;;;5.57;3.00;;;;;;;;;;5011203;28;20033;-61
2023/04/30 11:38:34;;;;;;;6.22;3.00;;;;;;;;;;5012631;28;20054;-62
2023/04/30 11:41:00;;;;;;;4.05;2.97;;;;;;;;;;5010788;28;20041;-61
2023/04/30 11:43:27;;;;;;;5.72;3.28;;;;;;;;;;5011978;28;20084;-61
2023/04/30 11:46:08;;;;;;;5.32;2.80;;;;;;;;;;5010968;28;20343;-62
2023/04/30 11:48:41;;;;;;;4.72;2.65;;;;;;;;;;5023808;28;20038;-62
2023/04/30 11:51:23;;;;;;;4.50;2.80;;;;;;;;;;5015552;28;20026;-62
2023/04/30 11:53:51;;;;;;;6.10;3.03;;;;;;;;;;5025363;28;20408;-63
2023/04/30 11:56:20;;;;;;;5.15;3.20;;;;;;;;;;5034316;28;20108;-62
2023/04/30 11:58:47;;;;;;;5.50;2.90;;;;;;;;;;5047649;28;20036;-62
2023/04/30 12:01:15;;;;;;;5.40;3.00;;;;;;;;;;5018903;28;20388;-63
2023/04/30 12:03:48;;;;;;;4.93;2.70;;;;;;;;;;5029440;28;20471;-62
2023/04/30 12:06:25;;;;;;;5.03;2.78;;;;;;;;;;5015337;28;20026;-63
2023/04/30 12:08:58;;;;;;;4.53;2.70;;;;;;;;;;5025153;28;20045;-62
2023/04/30 12:11:28;;;;;;;5.80;2.75;;;;;;;;;;5017945;28;20042;-62
2023/04/30 12:13:55;;;;;;;4.00;2.72;;;;;;;;;;5029789;28;20280;-62
2023/04/30 12:16:23;;;;;;;4.85;2.90;;;;;;;;;;5014185;28;20041;-63
2023/04/30 12:18:50;;;;;;;5.28;2.75;;;;;;;;;;5015959;28;20542;-62
2023/04/30 12:21:17;;;;;;;3.85;2.58;;;;;;;;;;5018691;28;20026;-62
2023/04/30 12:23:44;;;;;;;3.65;2.60;;;;;;;;;;5015616;28;20499;-62
2023/04/30 12:26:09;;;;;;;4.60;2.60;;;;;;;;;;5019605;28;20033;-63
2023/04/30 12:28:35;;;;;;;4.15;2.70;;;;;;;;;;5023201;28;20041;-62
2023/04/30 12:31:01;;;;;;;4.22;2.20;;;;;;;;;;5029168;28;20121;-63
2023/04/30 12:33:30;;;;;;;4.75;2.40;;;;;;;;;;5015589;28;20366;-62
2023/04/30 12:35:57;;;;;;;4.95;2.42;;;;;;;;;;5029469;28;20026;-62
2023/04/30 12:38:22;;;;;;;3.90;2.33;;;;;;;;;;5014397;28;20065;-62
2023/04/30 12:40:48;;;;;;;4.05;2.70;;;;;;;;;;5030884;28;20033;-62
2023/04/30 12:43:16;;;;;;;4.80;2.50;;;;;;;;;;5041821;28;20067;-62
2023/04/30 12:45:52;;;;;;;4.00;2.25;;;;;;;;;;5030469;28;20056;-62
2023/04/30 12:48:22;;;;;;;5.57;2.00;;;;;;;;;;5021123;28;20037;-62
2023/04/30 12:50:53;;;;;;;3.13;2.22;;;;;;;;;;5033953;28;20155;-62
2023/04/30 12:53:18;;;;;;;5.78;3.25;;;;;;;;;;5031193;28;20045;-62
2023/04/30 12:56:15;;;;;;;4.47;2.60;;;;;;;;;;5024529;28;20029;-62
2023/04/30 12:58:44;;;;;;;4.05;2.50;;;;;;;;;;5031976;28;20356;-63
2023/04/30 13:01:16;;;;;;;3.65;2.30;;;;;;;;;;5033855;28;20044;-62
2023/04/30 13:03:41;;;;;;;3.88;2.08;;;;;;;;;;5032875;28;20068;-63
2023/04/30 13:06:07;;;;;;;3.08;1.90;;;;;;;;;;5033182;28;20111;-64
2023/04/30 13:08:33;;;;;;;2.47;1.58;;;;;;;;;;5031193;28;20045;-62
2023/04/30 13:10:58;;;;;;;4.03;1.80;;;;;;;;;;5032932;28;20035;-64
2023/04/30 13:13:25;;;;;;;3.67;1.88;;;;;;;;;;5030893;28;20041;-62
2023/04/30 13:15:50;;;;;;;1.75;1.65;;;;;;;;;;5032246;28;20476;-62
2023/04/30 13:18:16;;;;;;;3.75;1.67;;;;;;;;;;5029511;28;20108;-62
2023/04/30 13:20:44;;;;;;;3.35;1.90;;;;;;;;;;5031359;28;20025;-61
2023/04/30 13:23:13;;;;;;;2.92;2.03;;;;;;;;;;5034145;28;20394;-62
2023/04/30 13:25:39;;;;;;;4.05;2.40;;;;;;;;;;5030753;28;20438;-62
2023/04/30 13:28:05;;;;;;;5.47;2.50;;;;;;;;;;5029656;28;20045;-62
2023/04/30 13:30:30;;;;;;;3.80;2.25;;;;;;;;;;5032216;28;20026;-63
2023/04/30 13:32:57;;;;;;;3.38;1.90;;;;;;;;;;5031567;28;20108;-62
2023/04/30 13:35:23;;;;;;;3.95;2.00;;;;;;;;;;5032032;28;20033;-62
2023/04/30 13:37:51;;;;;;;2.75;2.05;;;;;;;;;;5026870;28;20053;-62
2023/04/30 13:40:17;;;;;;;3.35;1.90;;;;;;;;;;5045679;28;20033;-63
2023/04/30 13:42:44;;;;;;;3.45;2.10;;;;;;;;;;5032233;28;20025;-61
2023/04/30 13:45:10;;;;;;;2.85;1.90;;;;;;;;;;5032616;28;20388;-62
2023/04/30 13:47:35;;;;;;;4.53;2.03;;;;;;;;;;5032509;28;20033;-63
2023/04/30 13:50:02;;;;;;;3.63;1.75;;;;;;;;;;5030036;28;20044;-63
2023/04/30 13:52:28;;;;;;;3.65;1.98;;;;;;;;;;5031536;28;20041;-61
2023/04/30 13:54:54;;;;;;;2.22;1.70;;;;;;;;;;5031195;28;20026;-61
2023/04/30 13:57:19;;;;;;;2.63;1.75;;;;;;;;;;5037698;28;20025;-63
2023/04/30 13:59:45;;;;;;;6.35;1.90;;;;;;;;;;5052246;28;20037;-62
2023/04/30 14:02:11;;;;;;;3.35;1.73;;;;;;;;;;5032564;28;20034;-61
2023/04/30 14:04:37;;;;;;;2.30;1.73;;;;;;;;;;5032595;28;20033;-62
2023/04/30 14:07:03;;;;;;;2.17;1.58;;;;;;;;;;5031249;28;20043;-62
2023/04/30 14:09:28;;;;;;;1.95;1.58;;;;;;;;;;5033270;28;20040;-65
2023/04/30 14:11:57;;;;;;;3.55;1.77;;;;;;;;;;5030930;28;20130;-64
2023/04/30 14:14:26;;;;;;;2.95;1.73;;;;;;;;;;5031757;28;20086;-63
2023/04/30 14:16:53;;;;;;;3.03;1.75;;;;;;;;;;5029828;28;20037;-62
2023/04/30 14:19:21;;;;;;;2.92;1.63;;;;;;;;;;5032555;28;20438;-62
2023/04/30 14:21:46;;;;;;;2.60;1.70;;;;;;;;;;5028445;28;20041;-63
2023/04/30 14:24:12;;;;;;;4.32;1.60;;;;;;;;;;5032382;28;20030;-62
2023/04/30 14:26:39;;;;;;;2.90;1.60;;;;;;;;;;5030364;28;20119;-62
2023/04/30 14:29:05;;;;;;;3.35;1.83;;;;;;;;;;5030343;28;20092;-63
2023/04/30 14:31:30;;;;;;;2.95;1.75;;;;;;;;;;5029689;28;20057;-63
2023/04/30 14:33:56;;;;;;;3.83;1.58;;;;;;;;;;5030354;28;20033;-62